sensor_id;sensor_type;location;lat;lon;timestamp;P1;durP1;ratioP1;P2;durP2;ratioP2
68188;SDS011;66299;47.514;19.218;2023-05-15T00:02:04;22.33;;;13.23;;
68188;SDS011;66299;47.514;19.218;2023-05-15T00:04:32;23.33;;;13.13;;
68188;SDS011;66299;47.514;19.218;2023-05-15T00:07:04;23.27;;;13.32;;
68188;SDS011;66299;47.514;19.218;2023-05-15T00:09:34;21.27;;;14.00;;
68188;SDS011;66299;47.514;19.218;2023-05-15T00:12:03;20.35;;;13.27;;
68188;SDS011;66299;47.514;19.218;2023-05-15T00:14:31;23.55;;;13.90;;
68188;SDS011;66299;47.514;19.218;2023-05-15T00:17:00;23.80;;;14.23;;
68188;SDS011;66299;47.514;19.218;2023-05-15T00:19:29;26.85;;;14.45;;
68188;SDS011;66299;47.514;19.218;2023-05-15T00:21:57;23.80;;;14.32;;
68188;SDS011;66299;47.514;19.218;2023-05-15T00:24:29;26.05;;;15.18;;
68188;SDS011;66299;47.514;19.218;2023-05-15T00:26:58;22.85;;;14.48;;
68188;SDS011;66299;47.514;19.218;2023-05-15T00:29:27;22.10;;;13.98;;
68188;SDS011;66299;47.514;19.218;2023-05-15T00:31:55;22.48;;;14.65;;
68188;SDS011;66299;47.514;19.218;2023-05-15T00:34:23;21.45;;;15.35;;
68188;SDS011;66299;47.514;19.218;2023-05-15T00:36:52;24.83;;;15.10;;
68188;SDS011;66299;47.514;19.218;2023-05-15T00:39:20;21.20;;;14.48;;
68188;SDS011;66299;47.514;19.218;2023-05-15T00:41:50;24.25;;;15.00;;
68188;SDS011;66299;47.514;19.218;2023-05-15T00:44:19;22.77;;;13.98;;
68188;SDS011;66299;47.514;19.218;2023-05-15T00:46:48;23.30;;;14.60;;
68188;SDS011;66299;47.514;19.218;2023-05-15T00:49:19;29.10;;;14.77;;
68188;SDS011;66299;47.514;19.218;2023-05-15T00:51:49;21.13;;;14.13;;
68188;SDS011;66299;47.514;19.218;2023-05-15T00:54:18;28.02;;;14.25;;
68188;SDS011;66299;47.514;19.218;2023-05-15T00:56:46;27.55;;;14.95;;
68188;SDS011;66299;47.514;19.218;2023-05-15T00:59:22;25.70;;;14.73;;
68188;SDS011;66299;47.514;19.218;2023-05-15T01:01:53;20.70;;;13.55;;
68188;SDS011;66299;47.514;19.218;2023-05-15T01:04:22;24.63;;;14.23;;
68188;SDS011;66299;47.514;19.218;2023-05-15T01:06:51;26.77;;;13.73;;
68188;SDS011;66299;47.514;19.218;2023-05-15T01:09:20;25.27;;;13.65;;
68188;SDS011;66299;47.514;19.218;2023-05-15T01:14:23;22.00;;;13.32;;
68188;SDS011;66299;47.514;19.218;2023-05-15T01:16:51;21.65;;;13.55;;
68188;SDS011;66299;47.514;19.218;2023-05-15T01:19:20;20.50;;;13.07;;
68188;SDS011;66299;47.514;19.218;2023-05-15T01:22:14;20.00;;;13.80;;
68188;SDS011;66299;47.514;19.218;2023-05-15T01:28:15;22.88;;;14.43;;
68188;SDS011;66299;47.514;19.218;2023-05-15T01:30:47;23.48;;;14.38;;
68188;SDS011;66299;47.514;19.218;2023-05-15T01:33:18;24.85;;;14.15;;
68188;SDS011;66299;47.514;19.218;2023-05-15T01:35:51;25.92;;;14.40;;
68188;SDS011;66299;47.514;19.218;2023-05-15T01:38:26;23.60;;;14.38;;
68188;SDS011;66299;47.514;19.218;2023-05-15T01:41:01;26.90;;;14.50;;
68188;SDS011;66299;47.514;19.218;2023-05-15T01:43:39;23.10;;;14.85;;
68188;SDS011;66299;47.514;19.218;2023-05-15T01:46:12;26.30;;;14.60;;
68188;SDS011;66299;47.514;19.218;2023-05-15T01:48:45;26.17;;;15.15;;
68188;SDS011;66299;47.514;19.218;2023-05-15T01:51:16;24.13;;;15.00;;
68188;SDS011;66299;47.514;19.218;2023-05-15T01:53:46;22.77;;;14.45;;
68188;SDS011;66299;47.514;19.218;2023-05-15T01:56:17;22.23;;;14.10;;
68188;SDS011;66299;47.514;19.218;2023-05-15T01:58:51;26.50;;;14.15;;
68188;SDS011;66299;47.514;19.218;2023-05-15T02:01:22;28.50;;;14.68;;
68188;SDS011;66299;47.514;19.218;2023-05-15T02:03:52;25.40;;;13.80;;
68188;SDS011;66299;47.514;19.218;2023-05-15T02:06:25;23.33;;;14.57;;
68188;SDS011;66299;47.514;19.218;2023-05-15T02:08:55;27.00;;;14.80;;
68188;SDS011;66299;47.514;19.218;2023-05-15T02:11:24;26.90;;;15.23;;
68188;SDS011;66299;47.514;19.218;2023-05-15T02:13:54;25.92;;;15.48;;
68188;SDS011;66299;47.514;19.218;2023-05-15T02:16:25;30.42;;;15.75;;
68188;SDS011;66299;47.514;19.218;2023-05-15T02:18:54;24.50;;;16.00;;
68188;SDS011;66299;47.514;19.218;2023-05-15T02:21:22;28.42;;;16.27;;
68188;SDS011;66299;47.514;19.218;2023-05-15T02:23:51;27.48;;;16.30;;
68188;SDS011;66299;47.514;19.218;2023-05-15T02:26:23;26.00;;;16.15;;
68188;SDS011;66299;47.514;19.218;2023-05-15T02:29:05;25.10;;;15.98;;
68188;SDS011;66299;47.514;19.218;2023-05-15T02:31:44;28.73;;;16.50;;
68188;SDS011;66299;47.514;19.218;2023-05-15T02:34:22;32.63;;;16.90;;
68188;SDS011;66299;47.514;19.218;2023-05-15T02:36:56;25.75;;;16.73;;
68188;SDS011;66299;47.514;19.218;2023-05-15T02:39:29;23.50;;;15.57;;
68188;SDS011;66299;47.514;19.218;2023-05-15T02:42:00;25.13;;;15.63;;
68188;SDS011;66299;47.514;19.218;2023-05-15T02:44:30;24.83;;;15.43;;
68188;SDS011;66299;47.514;19.218;2023-05-15T02:47:02;24.40;;;15.75;;
68188;SDS011;66299;47.514;19.218;2023-05-15T02:49:32;24.95;;;15.80;;
68188;SDS011;66299;47.514;19.218;2023-05-15T02:52:00;25.63;;;15.68;;
68188;SDS011;66299;47.514;19.218;2023-05-15T02:54:29;25.85;;;15.70;;
68188;SDS011;66299;47.514;19.218;2023-05-15T02:56:58;23.30;;;15.02;;
68188;SDS011;66299;47.514;19.218;2023-05-15T02:59:26;27.35;;;16.13;;
68188;SDS011;66299;47.514;19.218;2023-05-15T03:01:59;27.60;;;15.02;;
68188;SDS011;66299;47.514;19.218;2023-05-15T03:04:29;24.23;;;15.07;;
68188;SDS011;66299;47.514;19.218;2023-05-15T03:06:57;24.95;;;15.52;;
68188;SDS011;66299;47.514;19.218;2023-05-15T03:09:26;28.05;;;15.18;;
68188;SDS011;66299;47.514;19.218;2023-05-15T03:11:54;23.65;;;15.43;;
68188;SDS011;66299;47.514;19.218;2023-05-15T03:14:22;26.05;;;16.00;;
68188;SDS011;66299;47.514;19.218;2023-05-15T03:16:52;28.13;;;16.25;;
68188;SDS011;66299;47.514;19.218;2023-05-15T03:19:24;25.27;;;15.77;;
68188;SDS011;66299;47.514;19.218;2023-05-15T03:21:55;23.95;;;16.40;;
68188;SDS011;66299;47.514;19.218;2023-05-15T03:24:24;29.10;;;15.48;;
68188;SDS011;66299;47.514;19.218;2023-05-15T03:26:53;25.00;;;16.08;;
68188;SDS011;66299;47.514;19.218;2023-05-15T03:29:22;27.90;;;15.60;;
68188;SDS011;66299;47.514;19.218;2023-05-15T03:31:52;29.83;;;15.82;;
68188;SDS011;66299;47.514;19.218;2023-05-15T03:34:23;32.10;;;16.33;;
68188;SDS011;66299;47.514;19.218;2023-05-15T03:36:52;26.65;;;15.07;;
68188;SDS011;66299;47.514;19.218;2023-05-15T03:39:22;23.83;;;16.13;;
68188;SDS011;66299;47.514;19.218;2023-05-15T03:41:50;27.25;;;16.48;;
68188;SDS011;66299;47.514;19.218;2023-05-15T03:44:20;25.17;;;15.27;;
68188;SDS011;66299;47.514;19.218;2023-05-15T03:46:49;24.23;;;15.52;;
68188;SDS011;66299;47.514;19.218;2023-05-15T03:49:18;25.88;;;15.43;;
68188;SDS011;66299;47.514;19.218;2023-05-15T03:51:48;26.73;;;15.30;;
68188;SDS011;66299;47.514;19.218;2023-05-15T03:54:16;27.05;;;15.98;;
68188;SDS011;66299;47.514;19.218;2023-05-15T03:56:45;23.58;;;15.63;;
68188;SDS011;66299;47.514;19.218;2023-05-15T03:59:13;27.33;;;15.32;;
68188;SDS011;66299;47.514;19.218;2023-05-15T04:01:42;28.08;;;15.68;;
68188;SDS011;66299;47.514;19.218;2023-05-15T04:04:29;27.05;;;15.73;;
68188;SDS011;66299;47.514;19.218;2023-05-15T04:06:59;24.00;;;15.70;;
68188;SDS011;66299;47.514;19.218;2023-05-15T04:09:28;23.70;;;15.65;;
68188;SDS011;66299;47.514;19.218;2023-05-15T04:11:57;24.58;;;16.38;;
68188;SDS011;66299;47.514;19.218;2023-05-15T04:14:25;26.73;;;16.10;;
68188;SDS011;66299;47.514;19.218;2023-05-15T04:16:54;25.05;;;16.00;;
68188;SDS011;66299;47.514;19.218;2023-05-15T04:19:23;28.55;;;16.90;;
68188;SDS011;66299;47.514;19.218;2023-05-15T04:21:51;25.70;;;16.15;;
68188;SDS011;66299;47.514;19.218;2023-05-15T04:24:21;25.75;;;16.02;;
68188;SDS011;66299;47.514;19.218;2023-05-15T04:26:52;24.67;;;16.17;;
68188;SDS011;66299;47.514;19.218;2023-05-15T04:29:23;29.02;;;17.50;;
68188;SDS011;66299;47.514;19.218;2023-05-15T04:31:54;26.13;;;17.40;;
68188;SDS011;66299;47.514;19.218;2023-05-15T04:34:22;27.85;;;17.50;;
68188;SDS011;66299;47.514;19.218;2023-05-15T04:36:50;28.48;;;16.83;;
68188;SDS011;66299;47.514;19.218;2023-05-15T04:39:18;27.83;;;16.75;;
68188;SDS011;66299;47.514;19.218;2023-05-15T04:41:49;29.70;;;16.52;;
68188;SDS011;66299;47.514;19.218;2023-05-15T04:44:18;26.80;;;16.67;;
68188;SDS011;66299;47.514;19.218;2023-05-15T04:46:47;32.05;;;17.52;;
68188;SDS011;66299;47.514;19.218;2023-05-15T04:49:16;26.75;;;17.23;;
68188;SDS011;66299;47.514;19.218;2023-05-15T04:51:44;28.38;;;17.38;;
68188;SDS011;66299;47.514;19.218;2023-05-15T04:54:12;29.10;;;16.95;;
68188;SDS011;66299;47.514;19.218;2023-05-15T04:56:42;26.15;;;16.33;;
68188;SDS011;66299;47.514;19.218;2023-05-15T04:59:10;26.23;;;16.75;;
68188;SDS011;66299;47.514;19.218;2023-05-15T05:01:39;29.52;;;17.75;;
68188;SDS011;66299;47.514;19.218;2023-05-15T05:04:07;29.23;;;17.42;;
68188;SDS011;66299;47.514;19.218;2023-05-15T05:06:36;29.08;;;17.52;;
68188;SDS011;66299;47.514;19.218;2023-05-15T05:09:04;27.50;;;17.88;;
68188;SDS011;66299;47.514;19.218;2023-05-15T05:11:33;28.92;;;17.58;;
68188;SDS011;66299;47.514;19.218;2023-05-15T05:14:03;28.75;;;17.42;;
68188;SDS011;66299;47.514;19.218;2023-05-15T05:16:33;31.38;;;18.27;;
68188;SDS011;66299;47.514;19.218;2023-05-15T05:19:03;31.60;;;18.40;;
68188;SDS011;66299;47.514;19.218;2023-05-15T05:21:33;29.63;;;17.98;;
68188;SDS011;66299;47.514;19.218;2023-05-15T05:24:02;31.63;;;18.23;;
68188;SDS011;66299;47.514;19.218;2023-05-15T05:26:31;31.08;;;18.23;;
68188;SDS011;66299;47.514;19.218;2023-05-15T05:28:59;32.75;;;19.00;;
68188;SDS011;66299;47.514;19.218;2023-05-15T05:31:29;34.22;;;18.42;;
68188;SDS011;66299;47.514;19.218;2023-05-15T05:33:57;32.05;;;19.50;;
68188;SDS011;66299;47.514;19.218;2023-05-15T05:36:26;32.97;;;20.35;;
68188;SDS011;66299;47.514;19.218;2023-05-15T05:38:54;34.80;;;20.13;;
68188;SDS011;66299;47.514;19.218;2023-05-15T05:41:23;35.75;;;21.60;;
68188;SDS011;66299;47.514;19.218;2023-05-15T05:43:51;36.05;;;21.40;;
68188;SDS011;66299;47.514;19.218;2023-05-15T05:46:19;36.42;;;21.63;;
68188;SDS011;66299;47.514;19.218;2023-05-15T05:48:49;37.80;;;22.83;;
68188;SDS011;66299;47.514;19.218;2023-05-15T05:51:18;38.78;;;22.42;;
68188;SDS011;66299;47.514;19.218;2023-05-15T05:53:46;42.45;;;22.38;;
68188;SDS011;66299;47.514;19.218;2023-05-15T05:56:15;37.00;;;22.80;;
68188;SDS011;66299;47.514;19.218;2023-05-15T05:58:43;37.53;;;22.77;;
68188;SDS011;66299;47.514;19.218;2023-05-15T06:01:12;37.22;;;22.85;;
68188;SDS011;66299;47.514;19.218;2023-05-15T06:03:41;38.28;;;22.88;;
68188;SDS011;66299;47.514;19.218;2023-05-15T06:06:11;37.67;;;23.20;;
68188;SDS011;66299;47.514;19.218;2023-05-15T06:08:40;40.30;;;23.70;;
68188;SDS011;66299;47.514;19.218;2023-05-15T06:11:08;36.88;;;22.77;;
68188;SDS011;66299;47.514;19.218;2023-05-15T06:13:37;42.10;;;22.77;;
68188;SDS011;66299;47.514;19.218;2023-05-15T06:16:07;39.00;;;22.83;;
68188;SDS011;66299;47.514;19.218;2023-05-15T06:18:35;36.03;;;22.55;;
68188;SDS011;66299;47.514;19.218;2023-05-15T06:21:04;37.35;;;22.77;;
68188;SDS011;66299;47.514;19.218;2023-05-15T06:23:34;38.33;;;22.48;;
68188;SDS011;66299;47.514;19.218;2023-05-15T06:28:34;35.13;;;21.85;;
68188;SDS011;66299;47.514;19.218;2023-05-15T06:31:03;34.60;;;21.38;;
68188;SDS011;66299;47.514;19.218;2023-05-15T06:33:32;31.33;;;20.63;;
68188;SDS011;66299;47.514;19.218;2023-05-15T06:36:00;30.13;;;19.38;;
68188;SDS011;66299;47.514;19.218;2023-05-15T06:38:30;28.70;;;18.92;;
68188;SDS011;66299;47.514;19.218;2023-05-15T06:40:59;28.55;;;18.98;;
68188;SDS011;66299;47.514;19.218;2023-05-15T06:43:30;29.65;;;18.10;;
68188;SDS011;66299;47.514;19.218;2023-05-15T06:45:59;28.45;;;16.88;;
68188;SDS011;66299;47.514;19.218;2023-05-15T06:48:27;26.73;;;17.92;;
68188;SDS011;66299;47.514;19.218;2023-05-15T06:50:55;27.35;;;18.02;;
68188;SDS011;66299;47.514;19.218;2023-05-15T06:53:24;30.33;;;18.90;;
68188;SDS011;66299;47.514;19.218;2023-05-15T06:55:52;30.02;;;18.08;;
68188;SDS011;66299;47.514;19.218;2023-05-15T06:58:22;27.88;;;17.20;;
68188;SDS011;66299;47.514;19.218;2023-05-15T07:00:51;23.30;;;15.50;;
68188;SDS011;66299;47.514;19.218;2023-05-15T07:03:21;23.15;;;15.80;;
68188;SDS011;66299;47.514;19.218;2023-05-15T07:05:50;24.60;;;15.63;;
68188;SDS011;66299;47.514;19.218;2023-05-15T07:08:19;23.02;;;15.40;;
68188;SDS011;66299;47.514;19.218;2023-05-15T07:10:47;23.85;;;15.32;;
68188;SDS011;66299;47.514;19.218;2023-05-15T07:13:16;22.23;;;14.95;;
68188;SDS011;66299;47.514;19.218;2023-05-15T07:15:46;20.90;;;14.55;;
68188;SDS011;66299;47.514;19.218;2023-05-15T07:18:16;19.55;;;13.55;;
68188;SDS011;66299;47.514;19.218;2023-05-15T07:20:45;22.85;;;14.18;;
68188;SDS011;66299;47.514;19.218;2023-05-15T07:23:13;20.05;;;14.13;;
68188;SDS011;66299;47.514;19.218;2023-05-15T07:25:42;20.35;;;14.23;;
68188;SDS011;66299;47.514;19.218;2023-05-15T07:28:11;21.50;;;14.30;;
68188;SDS011;66299;47.514;19.218;2023-05-15T07:30:40;20.05;;;12.63;;
68188;SDS011;66299;47.514;19.218;2023-05-15T07:33:09;19.85;;;12.68;;
68188;SDS011;66299;47.514;19.218;2023-05-15T07:35:38;19.23;;;12.90;;
68188;SDS011;66299;47.514;19.218;2023-05-15T07:38:06;20.20;;;13.05;;
68188;SDS011;66299;47.514;19.218;2023-05-15T07:40:35;19.08;;;12.82;;
68188;SDS011;66299;47.514;19.218;2023-05-15T07:43:04;20.33;;;13.35;;
68188;SDS011;66299;47.514;19.218;2023-05-15T07:45:33;19.33;;;12.60;;
68188;SDS011;66299;47.514;19.218;2023-05-15T07:48:13;16.60;;;10.82;;
68188;SDS011;66299;47.514;19.218;2023-05-15T07:50:42;19.80;;;12.02;;
68188;SDS011;66299;47.514;19.218;2023-05-15T07:53:11;16.75;;;11.23;;
68188;SDS011;66299;47.514;19.218;2023-05-15T07:58:11;18.98;;;11.23;;
68188;SDS011;66299;47.514;19.218;2023-05-15T08:00:40;18.52;;;11.45;;
68188;SDS011;66299;47.514;19.218;2023-05-15T08:03:09;15.10;;;9.73;;
68188;SDS011;66299;47.514;19.218;2023-05-15T08:05:39;16.20;;;10.45;;
68188;SDS011;66299;47.514;19.218;2023-05-15T08:08:07;15.73;;;10.40;;
68188;SDS011;66299;47.514;19.218;2023-05-15T08:10:36;15.88;;;10.57;;
68188;SDS011;66299;47.514;19.218;2023-05-15T08:13:04;18.20;;;10.38;;
68188;SDS011;66299;47.514;19.218;2023-05-15T08:15:32;15.98;;;10.90;;
68188;SDS011;66299;47.514;19.218;2023-05-15T08:18:01;17.75;;;10.75;;
68188;SDS011;66299;47.514;19.218;2023-05-15T08:20:35;17.88;;;11.20;;
68188;SDS011;66299;47.514;19.218;2023-05-15T08:23:05;14.68;;;9.40;;
68188;SDS011;66299;47.514;19.218;2023-05-15T08:25:35;16.35;;;10.07;;
68188;SDS011;66299;47.514;19.218;2023-05-15T08:28:03;16.38;;;9.68;;
68188;SDS011;66299;47.514;19.218;2023-05-15T08:30:32;13.93;;;8.85;;
68188;SDS011;66299;47.514;19.218;2023-05-15T08:33:01;15.85;;;8.88;;
68188;SDS011;66299;47.514;19.218;2023-05-15T08:35:30;15.50;;;9.35;;
68188;SDS011;66299;47.514;19.218;2023-05-15T08:37:58;15.35;;;8.48;;
68188;SDS011;66299;47.514;19.218;2023-05-15T08:40:29;14.68;;;7.80;;
68188;SDS011;66299;47.514;19.218;2023-05-15T08:43:07;12.25;;;7.43;;
68188;SDS011;66299;47.514;19.218;2023-05-15T08:45:42;12.65;;;7.97;;
68188;SDS011;66299;47.514;19.218;2023-05-15T08:48:12;13.40;;;8.18;;
68188;SDS011;66299;47.514;19.218;2023-05-15T08:53:11;12.43;;;7.57;;
68188;SDS011;66299;47.514;19.218;2023-05-15T08:55:46;14.77;;;7.70;;
68188;SDS011;66299;47.514;19.218;2023-05-15T08:58:15;13.73;;;7.60;;
68188;SDS011;66299;47.514;19.218;2023-05-15T09:00:45;16.35;;;7.82;;
68188;SDS011;66299;47.514;19.218;2023-05-15T09:03:14;21.63;;;7.55;;
68188;SDS011;66299;47.514;19.218;2023-05-15T09:05:45;14.40;;;7.50;;
68188;SDS011;66299;47.514;19.218;2023-05-15T09:08:18;15.13;;;7.22;;
68188;SDS011;66299;47.514;19.218;2023-05-15T09:10:50;15.63;;;7.68;;
68188;SDS011;66299;47.514;19.218;2023-05-15T09:13:20;13.70;;;7.63;;
68188;SDS011;66299;47.514;19.218;2023-05-15T09:15:48;15.10;;;7.90;;
68188;SDS011;66299;47.514;19.218;2023-05-15T09:18:18;15.77;;;8.02;;
68188;SDS011;66299;47.514;19.218;2023-05-15T09:20:47;14.30;;;7.32;;
68188;SDS011;66299;47.514;19.218;2023-05-15T09:23:21;14.63;;;7.88;;
68188;SDS011;66299;47.514;19.218;2023-05-15T09:25:53;14.60;;;7.55;;
68188;SDS011;66299;47.514;19.218;2023-05-15T09:28:23;13.70;;;7.80;;
68188;SDS011;66299;47.514;19.218;2023-05-15T09:30:57;13.43;;;7.40;;
68188;SDS011;66299;47.514;19.218;2023-05-15T09:33:27;14.52;;;7.38;;
68188;SDS011;66299;47.514;19.218;2023-05-15T09:35:59;14.75;;;7.60;;
68188;SDS011;66299;47.514;19.218;2023-05-15T09:38:28;13.80;;;7.38;;
68188;SDS011;66299;47.514;19.218;2023-05-15T09:41:01;12.00;;;6.40;;
68188;SDS011;66299;47.514;19.218;2023-05-15T09:43:36;10.70;;;5.72;;
68188;SDS011;66299;47.514;19.218;2023-05-15T09:46:05;12.38;;;6.32;;
68188;SDS011;66299;47.514;19.218;2023-05-15T09:48:38;11.65;;;5.97;;
68188;SDS011;66299;47.514;19.218;2023-05-15T09:51:09;11.82;;;5.80;;
68188;SDS011;66299;47.514;19.218;2023-05-15T09:53:44;12.60;;;5.85;;
68188;SDS011;66299;47.514;19.218;2023-05-15T09:56:18;10.88;;;5.63;;
68188;SDS011;66299;47.514;19.218;2023-05-15T09:58:50;10.35;;;5.30;;
68188;SDS011;66299;47.514;19.218;2023-05-15T10:01:20;11.05;;;5.22;;
68188;SDS011;66299;47.514;19.218;2023-05-15T10:03:58;10.30;;;4.70;;
68188;SDS011;66299;47.514;19.218;2023-05-15T10:06:31;10.18;;;4.72;;
68188;SDS011;66299;47.514;19.218;2023-05-15T10:09:03;10.77;;;4.63;;
68188;SDS011;66299;47.514;19.218;2023-05-15T10:11:35;10.45;;;4.40;;
68188;SDS011;66299;47.514;19.218;2023-05-15T10:14:04;10.45;;;4.40;;
68188;SDS011;66299;47.514;19.218;2023-05-15T10:16:35;10.98;;;5.30;;
68188;SDS011;66299;47.514;19.218;2023-05-15T10:19:05;10.30;;;4.93;;
68188;SDS011;66299;47.514;19.218;2023-05-15T10:21:36;10.82;;;5.47;;
68188;SDS011;66299;47.514;19.218;2023-05-15T10:24:07;11.10;;;4.63;;
68188;SDS011;66299;47.514;19.218;2023-05-15T10:26:37;13.63;;;5.00;;
68188;SDS011;66299;47.514;19.218;2023-05-15T10:29:07;9.73;;;4.50;;
68188;SDS011;66299;47.514;19.218;2023-05-15T10:31:38;11.43;;;5.03;;
68188;SDS011;66299;47.514;19.218;2023-05-15T10:34:09;9.52;;;4.38;;
68188;SDS011;66299;47.514;19.218;2023-05-15T10:36:40;8.90;;;4.40;;
68188;SDS011;66299;47.514;19.218;2023-05-15T10:39:09;8.98;;;4.35;;
68188;SDS011;66299;47.514;19.218;2023-05-15T10:41:42;9.38;;;4.50;;
68188;SDS011;66299;47.514;19.218;2023-05-15T10:44:13;9.48;;;3.95;;
68188;SDS011;66299;47.514;19.218;2023-05-15T10:46:44;10.30;;;4.20;;
68188;SDS011;66299;47.514;19.218;2023-05-15T10:49:16;10.60;;;3.90;;
68188;SDS011;66299;47.514;19.218;2023-05-15T10:51:46;8.13;;;3.65;;
68188;SDS011;66299;47.514;19.218;2023-05-15T10:54:15;8.88;;;4.00;;
68188;SDS011;66299;47.514;19.218;2023-05-15T10:56:47;10.20;;;4.03;;
68188;SDS011;66299;47.514;19.218;2023-05-15T10:59:19;15.25;;;3.90;;
68188;SDS011;66299;47.514;19.218;2023-05-15T11:01:50;9.02;;;3.63;;
68188;SDS011;66299;47.514;19.218;2023-05-15T11:04:21;8.82;;;3.88;;
68188;SDS011;66299;47.514;19.218;2023-05-15T11:06:52;12.43;;;3.72;;
68188;SDS011;66299;47.514;19.218;2023-05-15T11:09:39;11.43;;;4.30;;
68188;SDS011;66299;47.514;19.218;2023-05-15T11:12:10;8.82;;;3.90;;
68188;SDS011;66299;47.514;19.218;2023-05-15T11:14:40;8.77;;;3.70;;
68188;SDS011;66299;47.514;19.218;2023-05-15T11:17:10;10.45;;;4.20;;
68188;SDS011;66299;47.514;19.218;2023-05-15T11:19:54;11.43;;;4.10;;
68188;SDS011;66299;47.514;19.218;2023-05-15T11:22:25;8.73;;;3.95;;
68188;SDS011;66299;47.514;19.218;2023-05-15T11:24:57;11.75;;;3.85;;
68188;SDS011;66299;47.514;19.218;2023-05-15T11:27:29;8.55;;;3.63;;
68188;SDS011;66299;47.514;19.218;2023-05-15T11:30:02;8.38;;;3.70;;
68188;SDS011;66299;47.514;19.218;2023-05-15T11:32:49;12.15;;;3.80;;
68188;SDS011;66299;47.514;19.218;2023-05-15T11:35:23;9.40;;;3.95;;
68188;SDS011;66299;47.514;19.218;2023-05-15T11:37:54;13.82;;;3.83;;
68188;SDS011;66299;47.514;19.218;2023-05-15T11:40:24;8.57;;;3.85;;
68188;SDS011;66299;47.514;19.218;2023-05-15T11:42:59;10.13;;;3.80;;
68188;SDS011;66299;47.514;19.218;2023-05-15T11:45:32;8.65;;;3.55;;
68188;SDS011;66299;47.514;19.218;2023-05-15T11:48:03;14.30;;;4.22;;
68188;SDS011;66299;47.514;19.218;2023-05-15T11:50:33;8.83;;;3.70;;
68188;SDS011;66299;47.514;19.218;2023-05-15T11:53:06;9.55;;;3.40;;
68188;SDS011;66299;47.514;19.218;2023-05-15T11:55:37;8.93;;;3.78;;
68188;SDS011;66299;47.514;19.218;2023-05-15T11:58:12;8.57;;;3.70;;
68188;SDS011;66299;47.514;19.218;2023-05-15T12:00:42;8.40;;;3.90;;
68188;SDS011;66299;47.514;19.218;2023-05-15T12:03:16;8.23;;;3.45;;
68188;SDS011;66299;47.514;19.218;2023-05-15T12:05:46;10.70;;;3.40;;
68188;SDS011;66299;47.514;19.218;2023-05-15T12:08:24;9.25;;;3.38;;
68188;SDS011;66299;47.514;19.218;2023-05-15T12:10:57;9.60;;;3.40;;
68188;SDS011;66299;47.514;19.218;2023-05-15T12:13:28;8.50;;;3.50;;
68188;SDS011;66299;47.514;19.218;2023-05-15T12:15:59;10.45;;;3.00;;
68188;SDS011;66299;47.514;19.218;2023-05-15T12:18:29;8.82;;;2.90;;
68188;SDS011;66299;47.514;19.218;2023-05-15T12:20:58;7.30;;;2.67;;
68188;SDS011;66299;47.514;19.218;2023-05-15T12:23:28;7.82;;;2.80;;
68188;SDS011;66299;47.514;19.218;2023-05-15T12:25:58;8.00;;;2.70;;
68188;SDS011;66299;47.514;19.218;2023-05-15T12:28:31;7.45;;;2.75;;
68188;SDS011;66299;47.514;19.218;2023-05-15T12:31:01;6.57;;;2.63;;
68188;SDS011;66299;47.514;19.218;2023-05-15T12:33:30;6.95;;;2.60;;
68188;SDS011;66299;47.514;19.218;2023-05-15T12:35:59;10.15;;;2.85;;
68188;SDS011;66299;47.514;19.218;2023-05-15T12:38:30;7.38;;;2.92;;
68188;SDS011;66299;47.514;19.218;2023-05-15T12:41:01;9.25;;;3.08;;
68188;SDS011;66299;47.514;19.218;2023-05-15T12:43:31;8.02;;;2.78;;
68188;SDS011;66299;47.514;19.218;2023-05-15T12:46:00;7.03;;;2.80;;
68188;SDS011;66299;47.514;19.218;2023-05-15T12:48:28;7.55;;;3.10;;
68188;SDS011;66299;47.514;19.218;2023-05-15T12:51:03;9.85;;;3.28;;
68188;SDS011;66299;47.514;19.218;2023-05-15T12:53:33;6.90;;;2.72;;
68188;SDS011;66299;47.514;19.218;2023-05-15T12:56:02;7.15;;;2.83;;
68188;SDS011;66299;47.514;19.218;2023-05-15T12:58:32;7.38;;;3.00;;
68188;SDS011;66299;47.514;19.218;2023-05-15T13:01:00;7.97;;;2.88;;
68188;SDS011;66299;47.514;19.218;2023-05-15T13:03:30;8.02;;;3.03;;
68188;SDS011;66299;47.514;19.218;2023-05-15T13:06:00;7.45;;;2.80;;
68188;SDS011;66299;47.514;19.218;2023-05-15T13:08:29;7.30;;;3.15;;
68188;SDS011;66299;47.514;19.218;2023-05-15T13:10:58;8.88;;;3.20;;
68188;SDS011;66299;47.514;19.218;2023-05-15T13:16:18;7.38;;;2.88;;
68188;SDS011;66299;47.514;19.218;2023-05-15T13:18:51;9.88;;;3.08;;
68188;SDS011;66299;47.514;19.218;2023-05-15T13:21:19;7.50;;;2.80;;
68188;SDS011;66299;47.514;19.218;2023-05-15T13:23:48;7.80;;;3.10;;
68188;SDS011;66299;47.514;19.218;2023-05-15T13:26:18;7.97;;;3.00;;
68188;SDS011;66299;47.514;19.218;2023-05-15T13:28:46;8.57;;;3.22;;
68188;SDS011;66299;47.514;19.218;2023-05-15T13:31:16;7.82;;;3.10;;
68188;SDS011;66299;47.514;19.218;2023-05-15T13:33:45;8.35;;;3.60;;
68188;SDS011;66299;47.514;19.218;2023-05-15T13:36:13;8.85;;;3.10;;
68188;SDS011;66299;47.514;19.218;2023-05-15T13:38:42;12.30;;;3.25;;
68188;SDS011;66299;47.514;19.218;2023-05-15T13:41:10;8.55;;;3.30;;
68188;SDS011;66299;47.514;19.218;2023-05-15T13:43:39;8.55;;;3.08;;
68188;SDS011;66299;47.514;19.218;2023-05-15T13:46:07;8.55;;;3.05;;
68188;SDS011;66299;47.514;19.218;2023-05-15T13:48:37;8.10;;;3.00;;
68188;SDS011;66299;47.514;19.218;2023-05-15T13:51:05;8.32;;;3.00;;
68188;SDS011;66299;47.514;19.218;2023-05-15T13:53:34;7.63;;;2.50;;
68188;SDS011;66299;47.514;19.218;2023-05-15T13:56:03;7.10;;;2.60;;
68188;SDS011;66299;47.514;19.218;2023-05-15T13:58:32;11.85;;;2.75;;
68188;SDS011;66299;47.514;19.218;2023-05-15T14:01:03;7.32;;;2.60;;
68188;SDS011;66299;47.514;19.218;2023-05-15T14:03:34;6.65;;;2.50;;
68188;SDS011;66299;47.514;19.218;2023-05-15T14:06:05;8.45;;;2.50;;
68188;SDS011;66299;47.514;19.218;2023-05-15T14:08:35;6.30;;;2.30;;
68188;SDS011;66299;47.514;19.218;2023-05-15T14:11:03;8.50;;;2.47;;
68188;SDS011;66299;47.514;19.218;2023-05-15T14:13:32;6.72;;;2.67;;
68188;SDS011;66299;47.514;19.218;2023-05-15T14:16:03;7.50;;;2.70;;
68188;SDS011;66299;47.514;19.218;2023-05-15T14:18:33;11.40;;;2.60;;
68188;SDS011;66299;47.514;19.218;2023-05-15T14:21:02;7.95;;;2.40;;
68188;SDS011;66299;47.514;19.218;2023-05-15T14:23:33;8.98;;;2.80;;
68188;SDS011;66299;47.514;19.218;2023-05-15T14:26:01;10.18;;;2.70;;
68188;SDS011;66299;47.514;19.218;2023-05-15T14:28:32;9.35;;;2.55;;
68188;SDS011;66299;47.514;19.218;2023-05-15T14:31:01;6.85;;;2.53;;
68188;SDS011;66299;47.514;19.218;2023-05-15T14:33:29;7.28;;;2.30;;
68188;SDS011;66299;47.514;19.218;2023-05-15T14:35:58;9.27;;;2.60;;
68188;SDS011;66299;47.514;19.218;2023-05-15T14:38:27;8.15;;;2.40;;
68188;SDS011;66299;47.514;19.218;2023-05-15T14:40:56;7.75;;;2.50;;
68188;SDS011;66299;47.514;19.218;2023-05-15T14:43:25;5.80;;;2.38;;
68188;SDS011;66299;47.514;19.218;2023-05-15T14:45:55;6.57;;;2.33;;
68188;SDS011;66299;47.514;19.218;2023-05-15T14:48:24;7.30;;;2.40;;
68188;SDS011;66299;47.514;19.218;2023-05-15T14:50:53;8.30;;;2.30;;
68188;SDS011;66299;47.514;19.218;2023-05-15T14:53:23;8.05;;;2.60;;